Time;durP1;ratioP1;P1;durP2;ratioP2;P2;SDS_P1;SDS_P2;PMS_P1;PMS_P2;Temp;Humidity;BMP_temperature;BMP_pressure;BME280_temperature;BME280_humidity;BME280_pressure;Samples;Min_cycle;Max_cycle;Signal;HPM_P1;HPM_P2
2022/10/29 00:01:27;;;;;;;30.52;8.95;;;12.80;99.90;;;;;;5129296;27;20498;-69
2022/10/29 00:04:04;;;;;;;35.75;8.10;;;12.80;99.90;;;;;;5118515;27;20034;-69
2022/10/29 00:06:31;;;;;;;26.10;6.30;;;12.80;99.90;;;;;;5135259;27;20555;-70
2022/10/29 00:09:01;;;;;;;31.40;7.72;;;12.80;99.90;;;;;;5128510;27;20050;-70
2022/10/29 00:11:36;;;;;;;28.58;6.55;;;12.80;99.90;;;;;;5136664;27;20465;-69
2022/10/29 00:14:03;;;;;;;34.17;6.18;;;12.70;99.90;;;;;;5154670;27;20491;-69
2022/10/29 00:16:38;;;;;;;40.33;7.00;;;12.70;99.90;;;;;;5109081;27;20510;-70
2022/10/29 00:19:06;;;;;;;37.30;8.07;;;12.70;99.90;;;;;;5129390;27;20043;-70
2022/10/29 00:21:39;;;;;;;16.20;4.80;;;12.70;99.90;;;;;;5135395;27;20034;-70
2022/10/29 00:24:07;;;;;;;27.73;6.38;;;12.70;99.90;;;;;;5151576;27;20066;-70
2022/10/29 00:26:34;;;;;;;27.30;5.30;;;12.70;99.90;;;;;;5129971;27;20493;-69
2022/10/29 00:29:04;;;;;;;30.60;6.78;;;12.60;99.90;;;;;;5132245;27;20410;-70
2022/10/29 00:31:33;;;;;;;46.40;8.68;;;12.60;99.90;;;;;;5136113;27;20114;-69
2022/10/29 00:34:02;;;;;;;103.50;12.43;;;12.60;99.90;;;;;;5147134;27;20039;-69
2022/10/29 00:36:32;;;;;;;41.30;7.50;;;12.60;99.90;;;;;;5153827;27;20055;-69
2022/10/29 00:39:17;;;;;;;94.60;11.98;;;12.50;99.90;;;;;;5136938;27;20074;-69
2022/10/29 00:42:00;;;;;;;38.97;7.95;;;12.60;99.90;;;;;;5152972;27;20592;-70
2022/10/29 00:44:34;;;;;;;226.65;22.10;;;12.50;99.90;;;;;;5148905;27;20048;-69
2022/10/29 00:47:34;;;;;;;438.65;35.88;;;12.40;99.90;;;;;;5151619;27;20041;-69
2022/10/29 00:50:11;;;;;;;42.88;7.93;;;12.40;99.90;;;;;;5130604;27;20088;-69
2022/10/29 00:52:43;;;;;;;42.10;8.35;;;12.30;99.90;;;;;;5118718;27;20046;-69
2022/10/29 00:55:14;;;;;;;88.63;10.05;;;12.30;99.90;;;;;;5135141;27;20045;-69
2022/10/29 00:57:48;;;;;;;45.55;9.05;;;12.30;99.90;;;;;;5153869;27;20031;-69
2022/10/29 01:00:21;;;;;;;82.28;11.65;;;12.20;99.90;;;;;;5118709;27;20034;-70
2022/10/29 01:02:56;;;;;;;49.75;9.02;;;12.20;99.90;;;;;;5153884;27;20089;-69
2022/10/29 01:05:25;;;;;;;201.07;16.55;;;12.10;99.90;;;;;;5135317;27;20593;-69
2022/10/29 01:07:52;;;;;;;550.10;38.97;;;12.00;99.90;;;;;;5153800;27;20035;-69
2022/10/29 01:10:45;;;;;;;32.20;7.20;;;12.00;99.90;;;;;;5135583;27;20058;-69
2022/10/29 01:13:48;;;;;;;42.53;10.00;;;12.00;99.90;;;;;;5135016;27;20071;-69
2022/10/29 01:16:30;;;;;;;15.30;5.03;;;11.90;99.90;;;;;;5131544;27;20042;-68
2022/10/29 01:19:23;;;;;;;17.45;5.57;;;11.80;99.90;;;;;;5157343;27;20066;-69
2022/10/29 01:22:01;;;;;;;51.78;8.20;;;11.70;99.90;;;;;;5094317;27;20061;-70
2022/10/29 01:24:42;;;;;;;33.20;7.10;;;11.70;99.90;;;;;;5139439;27;20042;-69
2022/10/29 01:27:27;;;;;;;260.48;23.48;;;11.60;99.90;;;;;;5156286;27;20051;-68
2022/10/29 01:30:28;;;;;;;257.48;20.63;;;11.50;99.90;;;;;;5139219;27;20039;-69
2022/10/29 01:33:15;;;;;;;19.92;5.85;;;11.50;99.90;;;;;;5139402;27;20042;-68
2022/10/29 01:36:17;;;;;;;126.05;12.85;;;11.40;99.90;;;;;;5139058;27;20063;-69
2022/10/29 01:39:01;;;;;;;287.60;23.48;;;11.30;99.90;;;;;;5157375;27;20058;-69
2022/10/29 01:41:51;;;;;;;232.45;17.27;;;11.30;99.90;;;;;;5157451;27;20046;-68
2022/10/29 01:44:39;;;;;;;230.27;18.70;;;11.40;99.90;;;;;;5157518;27;20053;-68
2022/10/29 01:47:16;;;;;;;321.48;23.17;;;11.40;99.90;;;;;;5136760;27;20538;-68
2022/10/29 01:49:53;;;;;;;373.75;26.40;;;11.40;99.90;;;;;;5138266;27;20055;-68
2022/10/29 01:52:22;;;;;;;293.55;24.20;;;11.50;99.90;;;;;;5157199;27;20038;-68
2022/10/29 01:54:51;;;;;;;24.63;7.03;;;11.50;99.90;;;;;;5138846;27;20035;-68
2022/10/29 01:57:37;;;;;;;440.95;32.55;;;11.50;99.90;;;;;;5157128;27;20027;-68
2022/10/29 02:00:05;;;;;;;52.33;10.40;;;11.40;99.90;;;;;;5157326;27;20081;-68
2022/10/29 02:02:34;;;;;;;372.13;29.33;;;11.40;99.90;;;;;;5121835;27;20077;-68
2022/10/29 02:05:28;;;;;;;271.75;18.95;;;11.30;99.90;;;;;;5157066;27;20041;-68
2022/10/29 02:08:17;;;;;;;211.45;18.08;;;11.20;99.90;;;;;;5138801;27;20061;-68
2022/10/29 02:11:00;;;;;;;183.18;14.18;;;11.20;99.90;;;;;;5157181;27;20481;-67
2022/10/29 02:13:40;;;;;;;166.10;12.80;;;11.10;99.90;;;;;;5138922;27;20042;-67
2022/10/29 02:16:09;;;;;;;245.43;16.73;;;11.20;99.90;;;;;;5136343;27;20035;-67
2022/10/29 02:18:44;;;;;;;199.38;14.82;;;11.20;99.90;;;;;;5138546;27;20046;-67
2022/10/29 02:21:18;;;;;;;216.23;16.77;;;11.10;99.90;;;;;;5138462;27;20478;-67
2022/10/29 02:23:52;;;;;;;150.00;15.35;;;11.10;99.90;;;;;;5138451;27;20070;-68
2022/10/29 02:26:18;;;;;;;233.70;20.95;;;11.10;99.90;;;;;;5138590;27;20121;-68
2022/10/29 02:28:45;;;;;;;168.60;16.40;;;11.20;99.90;;;;;;5155382;27;20087;-68
2022/10/29 02:31:11;;;;;;;104.40;12.35;;;11.20;99.90;;;;;;5138342;27;20045;-67
2022/10/29 02:33:38;;;;;;;103.82;12.10;;;11.20;99.90;;;;;;5138485;27;20041;-67
2022/10/29 02:36:05;;;;;;;261.38;23.25;;;11.20;99.90;;;;;;5121150;27;20366;-67
2022/10/29 02:38:32;;;;;;;125.05;10.88;;;11.10;99.90;;;;;;5156436;27;20051;-67
2022/10/29 02:40:58;;;;;;;209.07;15.60;;;11.10;99.90;;;;;;5137765;27;20502;-67
2022/10/29 02:43:25;;;;;;;134.65;12.27;;;11.00;99.90;;;;;;5138073;27;20045;-67
2022/10/29 02:46:14;;;;;;;208.73;19.40;;;11.00;99.90;;;;;;5154121;27;20095;-67
2022/10/29 02:48:41;;;;;;;70.05;10.85;;;11.10;99.90;;;;;;5138011;27;20031;-66
2022/10/29 02:51:08;;;;;;;54.88;9.27;;;11.00;99.90;;;;;;5156230;27;20122;-66
2022/10/29 02:53:36;;;;;;;93.30;13.75;;;10.90;99.90;;;;;;5137725;27;20547;-66
2022/10/29 02:56:04;;;;;;;79.30;11.60;;;10.90;99.90;;;;;;5137989;27;20049;-66
2022/10/29 02:58:31;;;;;;;40.58;8.13;;;10.80;99.90;;;;;;5137851;27;20467;-66
2022/10/29 03:00:57;;;;;;;45.15;8.82;;;10.80;99.90;;;;;;5156034;27;20097;-66
2022/10/29 03:03:24;;;;;;;83.93;9.55;;;10.80;99.90;;;;;;5137539;27;20053;-67
2022/10/29 03:05:51;;;;;;;188.50;21.95;;;10.90;99.90;;;;;;5137842;27;20362;-67
2022/10/29 03:08:18;;;;;;;103.50;13.15;;;10.90;99.90;;;;;;5137725;27;20142;-67
2022/10/29 03:10:44;;;;;;;180.55;21.42;;;11.00;99.90;;;;;;5137524;27;20089;-67
2022/10/29 03:13:11;;;;;;;108.30;13.15;;;11.00;99.90;;;;;;5137727;27;20034;-67
2022/10/29 03:15:37;;;;;;;103.13;12.63;;;11.00;99.90;;;;;;5118450;27;20034;-67
2022/10/29 03:18:04;;;;;;;123.47;12.00;;;11.10;99.90;;;;;;5156051;27;20031;-67
2022/10/29 03:20:30;;;;;;;160.32;18.48;;;11.10;99.90;;;;;;5134867;27;20122;-66
2022/10/29 03:22:56;;;;;;;106.43;13.50;;;11.20;99.90;;;;;;5134453;27;20041;-67
2022/10/29 03:25:21;;;;;;;102.93;12.52;;;11.20;99.90;;;;;;5154158;27;20034;-66
2022/10/29 03:27:47;;;;;;;145.63;16.90;;;11.20;99.90;;;;;;5135195;27;20042;-66
2022/10/29 03:30:15;;;;;;;119.88;14.50;;;11.30;99.90;;;;;;5154229;27;20041;-66
2022/10/29 03:32:42;;;;;;;136.98;17.63;;;11.30;99.90;;;;;;5135975;27;20031;-66
2022/10/29 03:35:09;;;;;;;155.82;21.33;;;11.30;99.90;;;;;;5136011;27;20039;-66
2022/10/29 03:37:36;;;;;;;106.05;15.05;;;11.40;99.90;;;;;;5132527;27;20531;-67
2022/10/29 03:40:03;;;;;;;61.92;13.25;;;11.40;99.90;;;;;;5133990;27;20572;-66
2022/10/29 03:42:30;;;;;;;65.32;14.80;;;11.50;99.90;;;;;;5132839;27;20045;-66
2022/10/29 03:44:59;;;;;;;67.80;15.30;;;11.50;99.90;;;;;;5133753;27;20100;-66
2022/10/29 03:47:26;;;;;;;56.70;14.30;;;11.60;99.90;;;;;;5132076;27;20046;-66
2022/10/29 03:49:52;;;;;;;40.33;12.93;;;11.60;99.90;;;;;;5132900;27;20047;-67
2022/10/29 03:52:18;;;;;;;50.90;14.93;;;11.60;99.90;;;;;;5134191;27;20039;-67
2022/10/29 03:54:44;;;;;;;49.85;14.77;;;11.70;99.90;;;;;;5133014;27;20089;-67
2022/10/29 03:57:09;;;;;;;47.35;15.38;;;11.70;99.90;;;;;;5115998;27;20035;-66
2022/10/29 03:59:35;;;;;;;58.47;15.75;;;11.70;99.90;;;;;;5134198;27;20042;-66
2022/10/29 04:02:01;;;;;;;86.57;21.20;;;11.80;99.90;;;;;;5134358;27;20089;-65
2022/10/29 04:04:27;;;;;;;69.18;16.88;;;11.80;99.90;;;;;;5133930;27;20460;-65
2022/10/29 04:06:52;;;;;;;54.10;16.17;;;11.80;99.90;;;;;;5133027;27;20126;-65
2022/10/29 04:09:18;;;;;;;77.63;21.58;;;11.90;99.90;;;;;;5134005;27;20054;-65
2022/10/29 04:11:44;;;;;;;69.28;20.88;;;11.90;99.90;;;;;;5134203;27;20459;-65
2022/10/29 04:14:10;;;;;;;85.68;20.77;;;11.90;99.90;;;;;;5134033;27;20031;-66
2022/10/29 04:16:36;;;;;;;91.13;22.73;;;11.90;99.90;;;;;;5130647;27;20387;-66
2022/10/29 04:19:02;;;;;;;80.05;19.38;;;12.00;99.90;;;;;;5134182;27;20067;-65
2022/10/29 04:21:28;;;;;;;129.73;24.63;;;12.00;99.90;;;;;;5133197;27;20213;-66
2022/10/29 04:23:54;;;;;;;89.30;21.23;;;12.00;99.90;;;;;;5132687;27;20180;-66
2022/10/29 04:26:20;;;;;;;65.35;17.05;;;12.00;99.90;;;;;;5132655;27;20172;-66
2022/10/29 04:28:50;;;;;;;146.35;28.27;;;12.10;99.90;;;;;;5133568;27;20038;-66
2022/10/29 04:31:16;;;;;;;177.65;31.23;;;12.10;99.90;;;;;;5132648;27;20047;-66
2022/10/29 04:33:42;;;;;;;158.13;27.50;;;12.10;99.90;;;;;;5134098;27;20035;-66
2022/10/29 04:36:09;;;;;;;132.93;27.58;;;12.20;99.90;;;;;;5132732;27;20049;-66
2022/10/29 04:38:34;;;;;;;165.57;28.35;;;12.30;99.90;;;;;;5152863;27;20086;-67
2022/10/29 04:41:01;;;;;;;214.48;33.22;;;12.30;99.90;;;;;;5154538;27;20441;-66
2022/10/29 04:43:28;;;;;;;149.52;27.17;;;12.30;99.90;;;;;;5136142;27;20047;-66
2022/10/29 04:45:56;;;;;;;171.25;29.90;;;12.40;99.90;;;;;;5133818;27;20125;-66
2022/10/29 04:48:24;;;;;;;244.30;39.20;;;12.40;99.90;;;;;;5154328;27;20053;-65
2022/10/29 04:50:49;;;;;;;201.73;36.15;;;12.40;99.90;;;;;;5136193;27;20118;-65
2022/10/29 04:53:16;;;;;;;179.95;32.08;;;12.40;99.90;;;;;;5135066;27;20442;-65
2022/10/29 04:55:42;;;;;;;142.98;27.58;;;12.40;99.90;;;;;;5136034;27;20027;-66
2022/10/29 04:58:16;;;;;;;145.05;27.13;;;12.50;99.90;;;;;;5136073;27;20375;-66
2022/10/29 05:00:42;;;;;;;181.55;29.95;;;12.50;99.90;;;;;;5135963;27;20393;-66
2022/10/29 05:03:08;;;;;;;173.73;29.98;;;12.40;99.90;;;;;;5135852;27;20550;-65
2022/10/29 05:05:36;;;;;;;196.15;35.97;;;12.50;99.90;;;;;;5154528;27;20034;-65
2022/10/29 05:08:03;;;;;;;81.80;21.88;;;12.50;99.90;;;;;;5118875;27;20045;-65
2022/10/29 05:10:34;;;;;;;137.88;27.33;;;12.50;99.90;;;;;;5135850;27;20126;-65
2022/10/29 05:13:03;;;;;;;135.80;26.10;;;12.50;99.90;;;;;;5135857;27;20047;-65
2022/10/29 05:15:29;;;;;;;82.10;22.25;;;12.50;99.90;;;;;;5116339;27;20035;-65
2022/10/29 05:17:56;;;;;;;161.60;32.28;;;12.50;99.90;;;;;;5154352;27;20087;-66
2022/10/29 05:20:23;;;;;;;96.70;25.15;;;12.50;99.90;;;;;;5154318;27;20043;-65
2022/10/29 05:22:48;;;;;;;90.22;24.80;;;12.60;99.90;;;;;;5154051;27;20043;-67
2022/10/29 05:25:15;;;;;;;133.85;30.52;;;12.60;99.90;;;;;;5135624;27;20042;-66
2022/10/29 05:27:40;;;;;;;82.95;22.40;;;12.50;99.90;;;;;;5154179;27;20459;-66
2022/10/29 05:30:07;;;;;;;90.68;24.55;;;12.50;99.90;;;;;;5154213;27;20039;-67
2022/10/29 05:32:33;;;;;;;76.25;23.67;;;12.50;99.90;;;;;;5154319;27;20049;-66
2022/10/29 05:34:59;;;;;;;87.25;24.65;;;12.50;99.90;;;;;;5154204;27;20109;-66
2022/10/29 05:37:26;;;;;;;69.45;21.90;;;12.50;99.90;;;;;;5154016;27;20099;-66
2022/10/29 05:39:52;;;;;;;65.07;23.00;;;12.50;99.90;;;;;;5154063;27;20047;-66
2022/10/29 05:42:18;;;;;;;85.10;24.40;;;12.50;99.90;;;;;;5118294;27;20042;-66
2022/10/29 05:44:44;;;;;;;103.32;27.60;;;12.50;99.90;;;;;;5135799;27;20121;-67
2022/10/29 05:47:10;;;;;;;114.40;30.25;;;12.40;99.90;;;;;;5151679;27;20523;-66
2022/10/29 05:49:35;;;;;;;153.27;33.67;;;12.40;99.90;;;;;;5153985;27;20038;-66
2022/10/29 05:52:01;;;;;;;149.55;34.00;;;12.40;99.90;;;;;;5154033;27;20034;-67
2022/10/29 05:54:27;;;;;;;122.60;31.27;;;12.40;99.90;;;;;;5135319;27;20039;-67
2022/10/29 05:56:52;;;;;;;146.90;29.02;;;12.40;99.90;;;;;;5135323;27;20046;-66
2022/10/29 05:59:18;;;;;;;133.98;28.67;;;12.40;99.90;;;;;;5135377;27;20055;-66
2022/10/29 06:01:44;;;;;;;249.70;37.40;;;12.40;99.90;;;;;;5153951;27;20042;-66
2022/10/29 06:04:10;;;;;;;266.98;38.85;;;12.40;99.90;;;;;;5137302;27;20497;-66
2022/10/29 06:06:36;;;;;;;209.95;32.45;;;12.30;99.90;;;;;;5138960;27;20127;-66
2022/10/29 06:09:02;;;;;;;213.18;31.85;;;12.30;99.90;;;;;;5138928;27;20047;-66
2022/10/29 06:11:28;;;;;;;279.40;38.13;;;12.30;99.90;;;;;;5157744;27;20043;-66
2022/10/29 06:13:55;;;;;;;234.30;34.70;;;12.30;99.90;;;;;;5138989;27;20470;-66
2022/10/29 06:16:21;;;;;;;307.60;41.60;;;12.30;99.90;;;;;;5136831;27;20076;-66
2022/10/29 06:18:47;;;;;;;181.35;29.05;;;12.30;99.90;;;;;;5138757;27;20046;-66
2022/10/29 06:21:13;;;;;;;296.70;38.30;;;12.20;99.90;;;;;;5157412;27;20484;-66
2022/10/29 06:23:39;;;;;;;299.27;41.15;;;12.30;99.90;;;;;;5157217;27;20114;-66
2022/10/29 06:26:04;;;;;;;277.80;37.45;;;12.20;99.90;;;;;;5138945;27;20035;-66
2022/10/29 06:28:30;;;;;;;271.02;37.88;;;12.20;99.90;;;;;;5138617;27;20047;-66
2022/10/29 06:30:56;;;;;;;330.83;43.42;;;12.20;99.90;;;;;;5138552;27;20038;-66
2022/10/29 06:33:22;;;;;;;134.07;24.92;;;12.20;99.90;;;;;;5138488;27;20039;-66
2022/10/29 06:35:48;;;;;;;183.60;28.05;;;12.20;99.90;;;;;;5157042;27;20091;-66
2022/10/29 06:38:14;;;;;;;196.38;30.98;;;12.20;99.90;;;;;;5156799;27;20093;-66
2022/10/29 06:40:41;;;;;;;250.00;36.08;;;12.20;99.90;;;;;;5138478;27;20034;-67
2022/10/29 06:43:10;;;;;;;254.73;35.67;;;12.20;99.90;;;;;;5138315;27;20039;-66
2022/10/29 06:45:36;;;;;;;241.57;34.95;;;12.20;99.90;;;;;;5135992;27;20770;-66
2022/10/29 06:48:03;;;;;;;247.70;35.30;;;12.20;99.90;;;;;;5138166;27;20081;-66
2022/10/29 06:50:30;;;;;;;280.77;40.53;;;12.20;99.90;;;;;;5138299;27;20041;-66
2022/10/29 06:53:04;;;;;;;268.25;36.85;;;12.20;99.90;;;;;;5156607;27;20386;-66
2022/10/29 06:55:32;;;;;;;224.73;37.72;;;12.20;99.90;;;;;;5138788;27;20517;-65
2022/10/29 06:58:02;;;;;;;207.73;33.45;;;12.20;99.90;;;;;;5138322;27;20039;-66
2022/10/29 07:00:29;;;;;;;241.75;37.55;;;12.20;99.90;;;;;;5156703;27;20098;-66
2022/10/29 07:02:55;;;;;;;203.50;33.60;;;12.20;99.90;;;;;;5156647;27;20076;-66
2022/10/29 07:05:22;;;;;;;237.75;38.70;;;12.20;99.90;;;;;;5156429;27;20034;-66
2022/10/29 07:07:48;;;;;;;177.18;33.00;;;12.20;99.90;;;;;;5138021;27;20078;-67
2022/10/29 07:10:14;;;;;;;102.15;25.77;;;12.20;99.90;;;;;;5137710;27;20529;-67
2022/10/29 07:12:43;;;;;;;178.90;32.08;;;12.20;99.90;;;;;;5156447;27;20074;-67
2022/10/29 07:15:10;;;;;;;142.35;31.60;;;12.20;99.90;;;;;;5120053;27;20037;-67
2022/10/29 07:17:36;;;;;;;101.80;25.60;;;12.20;99.90;;;;;;5135612;27;20053;-67
2022/10/29 07:20:03;;;;;;;93.38;25.20;;;12.20;99.90;;;;;;5137424;27;20470;-67
2022/10/29 07:22:29;;;;;;;66.97;22.98;;;12.20;99.90;;;;;;5120427;27;20045;-66
2022/10/29 07:24:54;;;;;;;61.70;21.83;;;12.30;99.90;;;;;;5137658;27;20046;-67
2022/10/29 07:27:20;;;;;;;76.47;24.20;;;12.30;99.90;;;;;;5156060;27;20378;-68
2022/10/29 07:29:46;;;;;;;85.50;24.65;;;12.30;99.90;;;;;;5137310;27;20039;-67
2022/10/29 07:32:12;;;;;;;63.80;22.15;;;12.30;99.90;;;;;;5137078;27;20045;-67
2022/10/29 07:34:37;;;;;;;85.68;26.38;;;12.30;99.90;;;;;;5137430;27;20066;-67
2022/10/29 07:37:03;;;;;;;69.35;24.05;;;12.30;99.90;;;;;;5155823;27;20065;-67
2022/10/29 07:39:29;;;;;;;89.65;26.88;;;12.30;99.90;;;;;;5155958;27;20046;-67
2022/10/29 07:41:55;;;;;;;76.43;24.73;;;12.30;99.90;;;;;;5137398;27;20103;-67
2022/10/29 07:44:20;;;;;;;67.45;24.70;;;12.40;99.90;;;;;;5155683;27;20046;-67
2022/10/29 07:46:46;;;;;;;73.43;26.05;;;12.50;99.90;;;;;;5134761;27;20125;-68
2022/10/29 07:49:12;;;;;;;73.38;25.17;;;12.50;99.90;;;;;;5155402;27;20046;-67
2022/10/29 07:51:37;;;;;;;68.32;26.02;;;12.50;99.90;;;;;;5155688;27;20042;-68
2022/10/29 07:54:03;;;;;;;63.45;25.70;;;12.60;99.90;;;;;;5136888;27;20458;-68
2022/10/29 07:56:29;;;;;;;74.60;25.75;;;12.60;99.90;;;;;;5155489;27;20038;-68
2022/10/29 07:58:55;;;;;;;69.43;25.15;;;12.70;99.90;;;;;;5136815;27;20511;-68
2022/10/29 08:01:20;;;;;;;65.25;24.58;;;12.70;99.90;;;;;;5137068;27;20042;-67
2022/10/29 08:03:49;;;;;;;67.32;25.80;;;12.70;99.90;;;;;;5155267;27;20485;-67
2022/10/29 08:06:15;;;;;;;63.97;23.88;;;12.80;99.90;;;;;;5136651;27;20042;-67
2022/10/29 08:08:40;;;;;;;60.45;23.50;;;12.80;99.90;;;;;;5154959;27;20118;-68
2022/10/29 08:11:06;;;;;;;56.53;23.45;;;12.90;99.90;;;;;;5136539;27;20083;-68
2022/10/29 08:13:32;;;;;;;59.95;23.75;;;12.90;99.90;;;;;;5155130;27;20043;-68
2022/10/29 08:15:58;;;;;;;52.13;23.17;;;13.00;99.90;;;;;;5134184;27;20538;-67
2022/10/29 08:18:24;;;;;;;54.38;23.70;;;13.00;99.90;;;;;;5136406;27;20114;-67
2022/10/29 08:20:50;;;;;;;52.38;22.30;;;13.00;99.90;;;;;;5119193;27;20117;-67
2022/10/29 08:23:15;;;;;;;51.97;22.45;;;13.10;99.90;;;;;;5136619;27;20074;-68
2022/10/29 08:25:42;;;;;;;55.30;23.83;;;13.20;99.90;;;;;;5119074;27;20477;-68
2022/10/29 08:28:10;;;;;;;56.67;22.48;;;13.30;99.90;;;;;;5154720;27;20482;-68
2022/10/29 08:30:36;;;;;;;49.58;24.15;;;13.40;99.90;;;;;;5136438;27;20367;-68
2022/10/29 08:33:03;;;;;;;40.47;20.42;;;13.60;99.90;;;;;;5135917;27;20077;-68
2022/10/29 08:35:29;;;;;;;46.08;20.23;;;13.90;99.90;;;;;;5136178;27;20129;-69
2022/10/29 08:37:55;;;;;;;43.30;18.70;;;14.10;99.90;;;;;;5122557;27;20495;-68
2022/10/29 08:40:50;;;;;;;37.72;18.80;;;14.40;99.90;;;;;;5115722;27;20050;-69
2022/10/29 08:43:57;;;;;;;27.77;16.55;;;14.80;99.90;;;;;;5051740;27;20047;-69
2022/10/29 08:46:48;;;;;;;26.75;15.55;;;15.50;99.90;;;;;;5113298;27;20043;-68
2022/10/29 08:49:20;;;;;;;31.73;16.40;;;16.10;99.90;;;;;;5133700;27;20563;-70
2022/10/29 08:52:00;;;;;;;30.95;17.52;;;16.10;99.90;;;;;;5115284;28;20035;-69
2022/10/29 08:54:30;;;;;;;32.10;18.13;;;16.10;99.90;;;;;;5115616;27;20368;-69
2022/10/29 08:57:00;;;;;;;30.88;16.42;;;16.00;99.90;;;;;;5133649;27;20035;-70
2022/10/29 08:59:30;;;;;;;27.67;15.57;;;15.90;99.90;;;;;;5098349;28;20104;-70
2022/10/29 09:01:56;;;;;;;32.70;17.52;;;15.70;99.90;;;;;;5098200;28;20108;-69
2022/10/29 09:04:32;;;;;;;33.35;18.17;;;15.70;99.90;;;;;;5098122;28;20047;-69
2022/10/29 09:07:06;;;;;;;34.38;18.67;;;15.70;99.90;;;;;;5115430;28;20039;-70
2022/10/29 09:09:40;;;;;;;38.47;18.52;;;15.60;99.90;;;;;;5133639;28;20464;-70
2022/10/29 09:16:12;;;;;;;38.47;19.83;;;15.50;99.90;;;;;;5131877;28;20075;-70
2022/10/29 09:18:48;;;;;;;30.40;18.70;;;15.50;99.90;;;;;;5114979;28;20039;-71
2022/10/29 09:21:38;;;;;;;29.77;18.23;;;15.60;99.90;;;;;;5097967;28;20043;-70
2022/10/29 09:24:21;;;;;;;33.45;18.25;;;15.70;99.90;;;;;;5133242;28;20421;-70
2022/10/29 09:26:58;;;;;;;30.48;17.60;;;15.90;99.90;;;;;;5131058;28;20047;-70
2022/10/29 09:29:44;;;;;;;33.33;17.73;;;16.00;99.90;;;;;;5133114;28;20460;-70
2022/10/29 09:32:16;;;;;;;31.38;17.95;;;16.00;99.90;;;;;;5132685;28;20453;-70
2022/10/29 09:34:51;;;;;;;31.77;18.42;;;16.00;99.90;;;;;;5114549;28;20039;-71
2022/10/29 09:37:34;;;;;;;30.70;18.67;;;15.90;99.90;;;;;;5097628;28;20113;-70
2022/10/29 09:40:12;;;;;;;32.85;17.45;;;16.00;99.90;;;;;;5118424;27;20042;-71
2022/10/29 09:42:43;;;;;;;32.90;17.25;;;16.00;99.90;;;;;;5137316;27;20043;-71
2022/10/29 09:45:14;;;;;;;31.27;18.15;;;16.10;99.90;;;;;;5136814;27;20498;-72
2022/10/29 09:47:55;;;;;;;30.42;19.67;;;16.20;99.90;;;;;;5118425;27;20560;-71
2022/10/29 09:51:08;;;;;;;31.55;18.92;;;16.20;99.90;;;;;;5136917;27;20079;-71
2022/10/29 09:53:34;;;;;;;38.15;19.02;;;16.30;99.90;;;;;;5063177;27;20082;-71
2022/10/29 09:55:59;;;;;;;36.63;17.38;;;16.30;99.90;;;;;;5113779;27;20432;-71
2022/10/29 09:58:27;;;;;;;33.67;18.02;;;16.20;99.90;;;;;;5118601;27;20069;-72
2022/10/29 10:00:56;;;;;;;33.60;18.42;;;16.20;99.90;;;;;;5118465;27;20428;-72
2022/10/29 10:03:44;;;;;;;34.38;18.08;;;16.30;99.90;;;;;;5118435;27;20429;-72
2022/10/29 10:06:15;;;;;;;24.65;16.45;;;16.50;99.90;;;;;;5118358;27;20085;-72
2022/10/29 10:09:03;;;;;;;28.70;15.70;;;16.70;99.90;;;;;;5107649;28;20043;-72
2022/10/29 10:11:51;;;;;;;28.65;15.43;;;17.20;99.90;;;;;;5108198;28;20487;-72
2022/10/29 10:14:23;;;;;;;24.10;13.77;;;17.60;99.90;;;;;;5116038;27;20035;-73
2022/10/29 10:16:57;;;;;;;22.30;14.45;;;17.90;99.90;;;;;;5136499;27;20046;-73
2022/10/29 10:19:27;;;;;;;29.95;15.68;;;18.00;99.90;;;;;;5109276;28;20035;-73
2022/10/29 10:22:02;;;;;;;22.85;14.65;;;18.00;99.90;;;;;;5108451;27;20039;-72
2022/10/29 10:24:37;;;;;;;23.65;14.27;;;18.00;99.90;;;;;;5136019;27;20068;-72
2022/10/29 10:27:25;;;;;;;24.65;12.70;;;18.10;99.90;;;;;;5098696;27;20396;-73
2022/10/29 10:30:03;;;;;;;22.20;12.00;;;18.80;99.90;;;;;;5136059;27;20082;-73
2022/10/29 10:32:29;;;;;;;19.75;11.77;;;19.70;99.90;;;;;;5136037;27;20035;-73
2022/10/29 10:34:55;;;;;;;25.45;11.88;;;20.20;99.90;;;;;;5117557;27;20039;-73
2022/10/29 10:37:21;;;;;;;26.38;11.93;;;20.40;99.90;;;;;;5117144;27;20047;-73
2022/10/29 10:40:00;;;;;;;23.83;11.88;;;20.40;99.90;;;;;;5117582;27;20124;-73
2022/10/29 10:42:30;;;;;;;21.67;11.85;;;20.10;99.90;;;;;;5135892;27;20035;-73
2022/10/29 10:45:02;;;;;;;16.55;11.20;;;19.80;99.90;;;;;;5135672;27;20063;-74
2022/10/29 10:47:32;;;;;;;25.20;12.07;;;19.60;99.90;;;;;;5117216;27;20108;-73
2022/10/29 10:50:19;;;;;;;21.55;11.77;;;19.30;99.90;;;;;;5134629;27;20035;-73
2022/10/29 10:52:45;;;;;;;19.95;11.38;;;19.10;99.90;;;;;;5135602;27;20486;-72
2022/10/29 10:55:26;;;;;;;23.67;12.43;;;18.90;99.90;;;;;;5115085;27;20141;-72
2022/10/29 10:58:01;;;;;;;21.52;12.35;;;18.80;99.90;;;;;;5100573;27;20430;-72
2022/10/29 11:00:39;;;;;;;24.50;12.02;;;18.80;99.90;;;;;;5117186;27;20053;-72
2022/10/29 11:03:26;;;;;;;24.90;11.77;;;18.90;99.90;;;;;;5117181;27;20403;-73
2022/10/29 11:06:05;;;;;;;20.02;11.07;;;18.90;99.90;;;;;;5135331;27;20043;-72
2022/10/29 11:08:50;;;;;;;18.73;10.27;;;19.00;99.90;;;;;;5135200;27;20529;-73
2022/10/29 11:11:38;;;;;;;19.73;11.13;;;19.10;99.90;;;;;;5135088;27;20046;-73
2022/10/29 11:14:14;;;;;;;20.52;11.15;;;19.30;99.90;;;;;;5117098;27;20039;-73
2022/10/29 11:16:49;;;;;;;22.50;11.25;;;19.50;99.90;;;;;;5135419;27;20092;-72
2022/10/29 11:19:34;;;;;;;23.85;11.70;;;19.60;99.90;;;;;;5134773;27;20043;-72
2022/10/29 11:22:39;;;;;;;18.50;11.88;;;19.60;99.90;;;;;;5116543;27;20043;-72
2022/10/29 11:25:20;;;;;;;19.20;10.68;;;19.50;99.90;;;;;;5069398;27;20082;-72
2022/10/29 11:28:08;;;;;;;17.73;10.63;;;19.50;99.90;;;;;;5134761;27;20039;-73
2022/10/29 11:30:41;;;;;;;22.05;10.45;;;19.50;99.90;;;;;;5099451;27;20487;-72
2022/10/29 11:33:34;;;;;;;17.85;10.00;;;19.70;99.90;;;;;;5111954;27;20050;-72
2022/10/29 11:36:17;;;;;;;19.90;10.45;;;19.70;99.90;;;;;;5127291;27;20054;-72
2022/10/29 11:38:59;;;;;;;20.48;10.65;;;19.70;99.90;;;;;;5108721;27;20096;-72
2022/10/29 11:41:39;;;;;;;19.60;10.68;;;19.70;99.90;;;;;;5112801;27;20039;-73
2022/10/29 11:44:13;;;;;;;18.75;9.98;;;19.70;99.90;;;;;;5116340;27;20487;-72
2022/10/29 11:47:06;;;;;;;19.42;9.48;;;19.70;99.90;;;;;;5099157;27;20046;-72
2022/10/29 11:50:00;;;;;;;21.15;9.68;;;19.80;99.90;;;;;;5115983;27;20072;-71
2022/10/29 11:52:46;;;;;;;20.15;9.52;;;19.80;99.90;;;;;;5134443;27;20463;-72
2022/10/29 11:55:54;;;;;;;21.52;10.48;;;19.70;99.90;;;;;;5131932;27;20173;-72
2022/10/29 11:58:33;;;;;;;19.10;10.07;;;19.60;99.90;;;;;;5134275;27;20525;-72
2022/10/29 12:01:09;;;;;;;15.00;9.30;;;19.60;99.90;;;;;;5098741;27;20046;-73
2022/10/29 12:03:42;;;;;;;19.70;9.75;;;19.50;99.90;;;;;;5132804;27;20081;-73
2022/10/29 12:06:45;;;;;;;18.20;11.25;;;19.40;99.90;;;;;;5110541;28;20039;-72
2022/10/29 12:09:23;;;;;;;22.02;11.57;;;19.40;99.90;;;;;;5074163;28;20067;-71
2022/10/29 12:12:11;;;;;;;18.00;10.48;;;19.30;99.90;;;;;;5113453;28;20039;-71
2022/10/29 12:15:01;;;;;;;17.75;9.88;;;19.30;99.90;;;;;;5087853;28;20093;-71
2022/10/29 12:17:51;;;;;;;23.33;11.13;;;19.30;99.90;;;;;;5114289;27;20118;-72
2022/10/29 12:20:33;;;;;;;21.63;10.77;;;19.30;99.90;;;;;;5134223;27;20042;-72
2022/10/29 12:22:59;;;;;;;21.48;11.23;;;19.20;99.90;;;;;;5115281;27;20507;-72
2022/10/29 12:25:39;;;;;;;20.85;11.02;;;19.20;99.90;;;;;;5113503;27;20062;-71
2022/10/29 12:28:45;;;;;;;20.52;11.02;;;19.10;99.90;;;;;;5115562;27;20047;-71
2022/10/29 12:31:23;;;;;;;24.15;12.15;;;19.00;99.90;;;;;;5132749;27;20104;-72
2022/10/29 12:34:18;;;;;;;21.35;11.20;;;18.90;99.90;;;;;;5115284;27;20131;-71
2022/10/29 12:37:27;;;;;;;17.25;10.90;;;19.00;99.90;;;;;;5115239;27;20059;-71
2022/10/29 12:39:59;;;;;;;20.27;10.90;;;19.00;99.90;;;;;;5093974;27;20039;-71
2022/10/29 12:42:29;;;;;;;21.23;11.45;;;19.10;99.90;;;;;;5133743;27;20118;-72
2022/10/29 12:45:16;;;;;;;23.55;10.35;;;19.20;99.90;;;;;;5133685;27;20050;-72
2022/10/29 12:48:01;;;;;;;20.83;11.48;;;19.40;99.90;;;;;;5115160;27;20078;-72
2022/10/29 12:50:33;;;;;;;23.73;11.02;;;19.60;99.90;;;;;;5098085;28;20460;-73
2022/10/29 12:53:12;;;;;;;22.80;11.13;;;19.60;99.90;;;;;;5114947;27;20039;-73
2022/10/29 12:55:39;;;;;;;20.45;12.00;;;19.70;99.90;;;;;;5112963;28;20435;-73
2022/10/29 12:58:42;;;;;;;20.65;11.30;;;19.70;99.90;;;;;;5133509;27;20031;-73